Flight Track Log - Related Links

Times and Time Zones

All times are in EDT time to prevent confusion due to time zone crossing. See the RPA3275 flight status page for this flight to view local times or setup timezone preferences in your user account.

Time Position Orientation Groundspeed Altitude Reporting Facility
EDT Latitude Longitude Course Direction KTS MPH feet Rate Location/Type
Wed 06:58:28 AM 42.7278 -73.8081 220° Southwest 144 166 1,700  Level Boston Center
Wed 06:59:16 AM 42.7025 -73.8331 216° Southwest 185 213 2,600 1,761 Climbing Boston Center
Wed 07:00:00 AM 42.7333 -74.1416 270° West  Level FlightAware Approximate
Wed 07:00:17 AM 42.7117 -73.9150 279° West 244 281 4,900  Level Boston Center
Wed 07:00:42 AM 42.7156 -73.9406 282° West 258 297 5,500 2,682 Climbing Boston Center
Wed 07:01:00 AM 42.7333 -74.2554 270° West  Level FlightAware Approximate
Wed 07:01:42 AM 42.7228 -74.0369 276° West 263 303 8,700  Level Boston Center
Wed 07:02:00 AM 42.7003 -74.3518 220° Southwest  Level FlightAware Approximate
Wed 07:02:42 AM 42.7314 -74.1444 276° West 256 295 11,400  Level Boston Center
Wed 07:03:00 AM 42.6359 -74.4243 220° Southwest  Level FlightAware Approximate
Wed 07:03:42 AM 42.7406 -74.2408 277° West 276 318 13,700  Level Boston Center
Wed 07:04:42 AM 42.7094 -74.3503 249° West 281 323 15,800 1,150 Climbing Boston Center
Wed 07:05:42 AM 42.6478 -74.4189 219° Southwest 281 323 16,000 100 Climbing Boston Center
Wed 07:06:42 AM 42.5775 -74.5011 221° Southwest 299 344 16,000  Level Boston Center
Wed 07:07:42 AM 42.5181 -74.5697 220° Southwest 317 365 16,000  Level Boston Center
Wed 07:08:42 AM 42.4475 -74.6544 222° Southwest 317 365 16,000 31 Level Boston Center
Wed 07:10:53 AM 42.3147 -74.8061 220° Southwest 320 368 16,100 32 Climbing New York Center
Wed 07:11:51 AM 42.2478 -74.8806 219° Southwest 314 361 16,100  Level New York Center
Wed 07:12:51 AM 42.1828 -74.9547 220° Southwest 314 361 16,100  Level New York Center
Wed 07:13:51 AM 42.1011 -75.0250 213° Southwest 323 372 16,100  Level New York Center
Wed 07:14:52 AM 42.0325 -75.0819 212° Southwest 323 372 16,100  Level New York Center
Wed 07:15:52 AM 41.9511 -75.1464 210° Southwest 323 372 16,100  Level New York Center
Wed 07:16:53 AM 41.8758 -75.2083 212° Southwest 323 372 16,100 -50 Level New York Center
Wed 07:17:51 AM 41.7986 -75.2700 211° Southwest 328 377 16,000 -50 Descending New York Center
Wed 07:18:52 AM 41.7297 -75.3264 211° Southwest 328 377 16,000  Level New York Center
Wed 07:19:51 AM 41.6544 -75.3878 211° Southwest 323 372 16,000 -756 Level New York Center
Wed 07:20:51 AM 41.5708 -75.4542 211° Southwest 328 377 14,500 -1,500 Descending New York Center
Wed 07:21:51 AM 41.4978 -75.5100 210° Southwest 323 372 13,000 -1,300 Descending New York Center
Wed 07:22:51 AM 41.4267 -75.5686 212° Southwest 317 365 11,900 -545 Descending New York Center
Wed 07:23:52 AM 41.3533 -75.6269 211° Southwest 310 357 11,900  Level New York Center
Wed 07:24:51 AM 41.2825 -75.6825 211° Southwest 310 357 11,900 -350 Level New York Center
Wed 07:25:52 AM 41.1994 -75.6739 176° South 284 327 11,200 -689 Descending New York Center
Wed 07:26:53 AM 41.1153 -75.6456 166° South 306 352 10,500 -645 Descending New York Center
Wed 07:27:53 AM 41.0286 -75.6203 168° South 318 366 9,900 -256 Descending New York Center
Wed 07:28:50 AM 40.9444 -75.5922 166° South 318 366 10,000 51 Climbing New York Center
Wed 07:29:51 AM 40.8561 -75.5639 166° South 318 366 10,000  Level New York Center
Wed 07:30:52 AM 40.7861 -75.5400 166° South 307 353 10,000  Level New York Center
Wed 07:31:52 AM 40.7019 -75.5122 166° South 295 339 10,000  Level New York Center
Wed 07:32:52 AM 40.6236 -75.4875 167° South 295 339 10,000  Level New York Center
Wed 07:33:51 AM 40.5453 -75.4631 167° South 295 339 10,000  Level New York Center
Wed 07:34:51 AM 40.4886 -75.4239 152° Southeast 295 339 10,000 -198 Level New York Center
Wed 07:35:52 AM 40.4119 -75.3586 147° Southeast 295 339 9,600 -1,150 Descending New York Center
Wed 07:36:51 AM 40.3372 -75.2964 148° Southeast 295 339 7,700 -1,765 Descending New York Center
Wed 07:37:51 AM 40.2683 -75.2456 151° Southeast 289 333 6,100 -1,091 Descending New York Center
Wed 07:38:52 AM 40.1994 -75.1950 151° Southeast 289 333 5,500 -992 Descending New York Center
Wed 07:39:52 AM 40.1386 -75.1478 149° Southeast 283 326 4,100 -756 Descending New York Center
Wed 07:40:51 AM 40.0656 -75.0942 151° Southeast 277 319 4,000 -100 Descending New York Center
Wed 07:41:52 AM 40.0006 -75.0494 152° Southeast 277 319 3,900 -694 Descending New York Center
Wed 07:42:52 AM 39.9333 -75.0000 151° Southeast 260 299 2,600 -1,300 Descending Philadelphia TRACON

Login

Don't have an account? Register now (free) for customized features, flight alerts, and more!